ADDS TAF Data INFO
IDs: Format: Raw Decoded Include METARs

Data at: 1601 UTC 21 Sep 2017

METAR for:MWCR (Grand Cayman/Roberts, --, GC)
Text:MWCR 211500Z 03013KT 9999 FEW020 32/26 Q1012
Temperature: 32.0°C ( 90°F)
Dewpoint: 26.0°C ( 79°F) [RH = 71%]
Pressure (altimeter):29.88 inches Hg (1012.0 mb)
Winds:from the NNE (30 degrees) at 15 MPH (13 knots; 6.7 m/s)
Visibility:6 or more sm (10+ km)
Ceiling:at least 12,000 feet AGL
Clouds: few clouds at 2000 feet AGL

TAF for:MWCR (Grand Cayman/Roberts, --, GC) issued at 1100 UTC 21 Sep 2017
Text:TAF MWCR 211100Z 2112/2212 07010KT 9999 FEW018
Forecast period:1200 UTC 21 September 2017 to 1200 UTC 22 September 2017
Forecast type:FROM: standard forecast or significant change
Winds:from the ENE (70 degrees) at 12 MPH (10 knots; 5.1 m/s)
Visibility:6 or more sm (10+ km)
Ceiling:at least 12,000 feet AGL
Clouds: few clouds at 1800 feet AGL
Text:PROB30
Forecast period:1800 UTC 21 September 2017 to 0000 UTC 22 September 2017
Forecast type:TEMPORARY: The following changes expected for less than half the time period
Visibility: 6 sm ( 9 km)
Ceiling:at least 12,000 feet AGL
Clouds: scattered clouds at 1600 feet AGL
Weather:SHRA (rain showers)